sensor_id;sensor_type;location;lat;lon;timestamp;temperature;humidity
34955;DHT22;21639;51.460;-2.536;2022-07-29T00:02:08;16.70;1.00
34955;DHT22;21639;51.460;-2.536;2022-07-29T00:04:35;16.60;1.00
34955;DHT22;21639;51.460;-2.536;2022-07-29T00:07:01;16.60;1.00
34955;DHT22;21639;51.460;-2.536;2022-07-29T00:09:26;16.60;1.00
34955;DHT22;21639;51.460;-2.536;2022-07-29T00:11:53;16.50;1.00
34955;DHT22;21639;51.460;-2.536;2022-07-29T00:14:20;16.50;1.00
34955;DHT22;21639;51.460;-2.536;2022-07-29T00:16:46;16.50;1.00
34955;DHT22;21639;51.460;-2.536;2022-07-29T00:19:11;16.50;1.00
34955;DHT22;21639;51.460;-2.536;2022-07-29T00:21:37;16.40;1.00
34955;DHT22;21639;51.460;-2.536;2022-07-29T00:24:03;16.40;1.00
34955;DHT22;21639;51.460;-2.536;2022-07-29T00:26:28;16.40;1.00
34955;DHT22;21639;51.460;-2.536;2022-07-29T00:29:00;16.30;1.00
34955;DHT22;21639;51.460;-2.536;2022-07-29T00:31:27;16.30;1.00
34955;DHT22;21639;51.460;-2.536;2022-07-29T00:33:52;16.30;1.00
34955;DHT22;21639;51.460;-2.536;2022-07-29T00:36:18;16.30;1.00
34955;DHT22;21639;51.460;-2.536;2022-07-29T00:38:49;16.30;1.00
34955;DHT22;21639;51.460;-2.536;2022-07-29T00:41:16;16.30;1.00
34955;DHT22;21639;51.460;-2.536;2022-07-29T00:43:42;16.20;1.00
34955;DHT22;21639;51.460;-2.536;2022-07-29T00:46:08;16.20;1.00
34955;DHT22;21639;51.460;-2.536;2022-07-29T00:48:34;16.20;1.00
34955;DHT22;21639;51.460;-2.536;2022-07-29T00:51:02;16.20;1.00
34955;DHT22;21639;51.460;-2.536;2022-07-29T00:53:29;16.30;1.00
34955;DHT22;21639;51.460;-2.536;2022-07-29T00:55:54;16.20;1.00
34955;DHT22;21639;51.460;-2.536;2022-07-29T00:58:21;16.10;1.00
34955;DHT22;21639;51.460;-2.536;2022-07-29T01:00:47;16.10;1.00
34955;DHT22;21639;51.460;-2.536;2022-07-29T01:03:13;16.00;1.00
34955;DHT22;21639;51.460;-2.536;2022-07-29T01:05:39;16.10;1.00
34955;DHT22;21639;51.460;-2.536;2022-07-29T01:08:06;16.10;1.00
34955;DHT22;21639;51.460;-2.536;2022-07-29T01:10:33;16.10;1.00
34955;DHT22;21639;51.460;-2.536;2022-07-29T01:13:02;16.00;1.00
34955;DHT22;21639;51.460;-2.536;2022-07-29T01:15:29;16.00;1.00
34955;DHT22;21639;51.460;-2.536;2022-07-29T01:18:04;16.00;1.00
34955;DHT22;21639;51.460;-2.536;2022-07-29T01:31:07;16.10;1.00
34955;DHT22;21639;51.460;-2.536;2022-07-29T01:33:41;16.10;1.00
34955;DHT22;21639;51.460;-2.536;2022-07-29T01:36:32;16.10;1.00
34955;DHT22;21639;51.460;-2.536;2022-07-29T01:39:12;16.10;1.00
34955;DHT22;21639;51.460;-2.536;2022-07-29T01:41:51;16.10;1.00
34955;DHT22;21639;51.460;-2.536;2022-07-29T01:44:30;16.10;1.00
34955;DHT22;21639;51.460;-2.536;2022-07-29T01:47:00;16.10;1.00
34955;DHT22;21639;51.460;-2.536;2022-07-29T01:49:33;16.10;1.00
34955;DHT22;21639;51.460;-2.536;2022-07-29T01:52:05;16.00;1.00
34955;DHT22;21639;51.460;-2.536;2022-07-29T01:54:48;16.00;1.00
34955;DHT22;21639;51.460;-2.536;2022-07-29T01:57:15;15.90;1.00
34955;DHT22;21639;51.460;-2.536;2022-07-29T01:59:47;15.90;1.00
34955;DHT22;21639;51.460;-2.536;2022-07-29T02:02:15;15.90;1.00
34955;DHT22;21639;51.460;-2.536;2022-07-29T02:04:42;15.90;1.00
34955;DHT22;21639;51.460;-2.536;2022-07-29T02:07:12;15.80;1.00
34955;DHT22;21639;51.460;-2.536;2022-07-29T02:09:41;15.80;1.00
34955;DHT22;21639;51.460;-2.536;2022-07-29T02:12:08;15.80;1.00
34955;DHT22;21639;51.460;-2.536;2022-07-29T02:14:39;15.80;1.00
34955;DHT22;21639;51.460;-2.536;2022-07-29T02:17:06;15.80;1.00
34955;DHT22;21639;51.460;-2.536;2022-07-29T02:19:32;15.80;1.00
34955;DHT22;21639;51.460;-2.536;2022-07-29T02:22:00;15.80;1.00
34955;DHT22;21639;51.460;-2.536;2022-07-29T02:24:27;15.90;1.00
34955;DHT22;21639;51.460;-2.536;2022-07-29T02:26:55;15.80;1.00
34955;DHT22;21639;51.460;-2.536;2022-07-29T02:29:25;15.90;1.00
34955;DHT22;21639;51.460;-2.536;2022-07-29T02:31:51;15.90;1.00
34955;DHT22;21639;51.460;-2.536;2022-07-29T02:34:19;15.80;1.00
34955;DHT22;21639;51.460;-2.536;2022-07-29T02:36:46;15.80;1.00
34955;DHT22;21639;51.460;-2.536;2022-07-29T02:39:14;15.70;1.00
34955;DHT22;21639;51.460;-2.536;2022-07-29T02:41:46;15.70;1.00
34955;DHT22;21639;51.460;-2.536;2022-07-29T02:44:17;15.60;1.30
34955;DHT22;21639;51.460;-2.536;2022-07-29T02:46:49;15.50;11.00
34955;DHT22;21639;51.460;-2.536;2022-07-29T02:49:35;15.40;21.30
34955;DHT22;21639;51.460;-2.536;2022-07-29T02:52:08;15.30;25.40
34955;DHT22;21639;51.460;-2.536;2022-07-29T02:54:44;15.30;31.30
34955;DHT22;21639;51.460;-2.536;2022-07-29T02:57:19;15.30;43.60
34955;DHT22;21639;51.460;-2.536;2022-07-29T02:59:48;15.20;50.70
34955;DHT22;21639;51.460;-2.536;2022-07-29T03:02:15;15.20;62.70
34955;DHT22;21639;51.460;-2.536;2022-07-29T03:04:42;15.10;67.60
34955;DHT22;21639;51.460;-2.536;2022-07-29T03:07:09;15.00;70.00
34955;DHT22;21639;51.460;-2.536;2022-07-29T03:09:36;14.90;78.00
34955;DHT22;21639;51.460;-2.536;2022-07-29T03:12:03;14.90;87.70
34955;DHT22;21639;51.460;-2.536;2022-07-29T03:14:30;14.80;92.70
34955;DHT22;21639;51.460;-2.536;2022-07-29T03:16:57;14.80;95.50
34955;DHT22;21639;51.460;-2.536;2022-07-29T03:19:23;14.70;98.70
34955;DHT22;21639;51.460;-2.536;2022-07-29T03:21:49;14.70;99.90
34955;DHT22;21639;51.460;-2.536;2022-07-29T03:24:32;14.60;99.90
34955;DHT22;21639;51.460;-2.536;2022-07-29T03:26:58;14.50;99.90
34955;DHT22;21639;51.460;-2.536;2022-07-29T03:29:25;14.50;99.90
34955;DHT22;21639;51.460;-2.536;2022-07-29T03:31:51;14.50;99.90
34955;DHT22;21639;51.460;-2.536;2022-07-29T03:34:17;14.50;99.90
34955;DHT22;21639;51.460;-2.536;2022-07-29T03:36:42;14.50;99.90
34955;DHT22;21639;51.460;-2.536;2022-07-29T03:39:09;14.50;99.90
34955;DHT22;21639;51.460;-2.536;2022-07-29T03:41:37;14.50;99.90
34955;DHT22;21639;51.460;-2.536;2022-07-29T03:44:06;14.40;99.90
34955;DHT22;21639;51.460;-2.536;2022-07-29T03:46:33;14.30;99.90
34955;DHT22;21639;51.460;-2.536;2022-07-29T03:49:02;14.30;99.90
34955;DHT22;21639;51.460;-2.536;2022-07-29T03:51:29;14.20;99.90
34955;DHT22;21639;51.460;-2.536;2022-07-29T03:53:55;14.20;99.90
34955;DHT22;21639;51.460;-2.536;2022-07-29T03:56:22;14.20;99.90
34955;DHT22;21639;51.460;-2.536;2022-07-29T03:58:51;14.10;99.90
34955;DHT22;21639;51.460;-2.536;2022-07-29T04:01:19;14.00;99.90
34955;DHT22;21639;51.460;-2.536;2022-07-29T04:03:45;14.00;99.90
34955;DHT22;21639;51.460;-2.536;2022-07-29T04:06:12;14.00;99.90
34955;DHT22;21639;51.460;-2.536;2022-07-29T04:08:38;13.90;99.90
34955;DHT22;21639;51.460;-2.536;2022-07-29T04:11:04;13.90;99.90
34955;DHT22;21639;51.460;-2.536;2022-07-29T04:13:31;13.90;99.90
34955;DHT22;21639;51.460;-2.536;2022-07-29T04:15:57;13.80;99.90
34955;DHT22;21639;51.460;-2.536;2022-07-29T04:18:23;13.80;99.90
34955;DHT22;21639;51.460;-2.536;2022-07-29T04:20:49;13.70;99.90
34955;DHT22;21639;51.460;-2.536;2022-07-29T04:23:15;13.70;99.90
34955;DHT22;21639;51.460;-2.536;2022-07-29T04:25:41;13.70;99.90
34955;DHT22;21639;51.460;-2.536;2022-07-29T04:28:08;13.70;99.90
34955;DHT22;21639;51.460;-2.536;2022-07-29T04:30:35;13.70;99.90
34955;DHT22;21639;51.460;-2.536;2022-07-29T04:33:02;13.80;99.90
34955;DHT22;21639;51.460;-2.536;2022-07-29T04:35:30;13.80;99.90
34955;DHT22;21639;51.460;-2.536;2022-07-29T04:37:56;13.80;99.90
34955;DHT22;21639;51.460;-2.536;2022-07-29T04:40:22;13.80;99.90
34955;DHT22;21639;51.460;-2.536;2022-07-29T04:42:48;13.80;99.90
34955;DHT22;21639;51.460;-2.536;2022-07-29T04:45:14;13.70;99.90
34955;DHT22;21639;51.460;-2.536;2022-07-29T04:47:39;13.70;99.90
34955;DHT22;21639;51.460;-2.536;2022-07-29T04:50:06;13.80;99.90
34955;DHT22;21639;51.460;-2.536;2022-07-29T04:52:33;13.80;99.90
34955;DHT22;21639;51.460;-2.536;2022-07-29T04:55:00;13.80;99.90
34955;DHT22;21639;51.460;-2.536;2022-07-29T04:57:25;13.80;99.90
34955;DHT22;21639;51.460;-2.536;2022-07-29T04:59:51;13.80;99.90
34955;DHT22;21639;51.460;-2.536;2022-07-29T05:02:17;13.70;99.90
34955;DHT22;21639;51.460;-2.536;2022-07-29T05:04:43;13.70;99.90
34955;DHT22;21639;51.460;-2.536;2022-07-29T05:07:08;13.60;99.90
34955;DHT22;21639;51.460;-2.536;2022-07-29T05:09:34;13.70;99.90
34955;DHT22;21639;51.460;-2.536;2022-07-29T05:11:59;13.70;99.90
34955;DHT22;21639;51.460;-2.536;2022-07-29T05:14:25;13.70;99.90
34955;DHT22;21639;51.460;-2.536;2022-07-29T05:16:51;13.80;99.90
34955;DHT22;21639;51.460;-2.536;2022-07-29T05:19:17;13.80;99.90
34955;DHT22;21639;51.460;-2.536;2022-07-29T05:21:44;13.90;99.90
34955;DHT22;21639;51.460;-2.536;2022-07-29T05:24:10;14.10;99.90
34955;DHT22;21639;51.460;-2.536;2022-07-29T05:26:36;14.20;99.90
34955;DHT22;21639;51.460;-2.536;2022-07-29T05:29:01;14.20;99.90
34955;DHT22;21639;51.460;-2.536;2022-07-29T05:31:27;14.30;99.90
34955;DHT22;21639;51.460;-2.536;2022-07-29T05:33:52;14.40;99.90
34955;DHT22;21639;51.460;-2.536;2022-07-29T05:36:18;14.50;99.90
34955;DHT22;21639;51.460;-2.536;2022-07-29T05:38:44;14.50;99.90
34955;DHT22;21639;51.460;-2.536;2022-07-29T05:41:10;14.50;99.90
34955;DHT22;21639;51.460;-2.536;2022-07-29T05:43:36;14.50;99.90
34955;DHT22;21639;51.460;-2.536;2022-07-29T05:46:01;14.60;99.90
34955;DHT22;21639;51.460;-2.536;2022-07-29T05:48:27;14.70;99.90
34955;DHT22;21639;51.460;-2.536;2022-07-29T05:50:53;15.00;99.90
34955;DHT22;21639;51.460;-2.536;2022-07-29T05:53:19;15.10;99.90
34955;DHT22;21639;51.460;-2.536;2022-07-29T05:55:44;15.00;99.90
34955;DHT22;21639;51.460;-2.536;2022-07-29T05:58:10;14.90;99.90
34955;DHT22;21639;51.460;-2.536;2022-07-29T06:00:35;15.00;99.90
34955;DHT22;21639;51.460;-2.536;2022-07-29T06:03:01;15.10;99.90
34955;DHT22;21639;51.460;-2.536;2022-07-29T06:05:27;15.30;99.90
34955;DHT22;21639;51.460;-2.536;2022-07-29T06:07:52;15.40;99.90
34955;DHT22;21639;51.460;-2.536;2022-07-29T06:10:18;15.50;99.90
34955;DHT22;21639;51.460;-2.536;2022-07-29T06:12:44;15.40;99.90
34955;DHT22;21639;51.460;-2.536;2022-07-29T06:15:10;15.40;99.90
34955;DHT22;21639;51.460;-2.536;2022-07-29T06:17:36;15.40;99.90
34955;DHT22;21639;51.460;-2.536;2022-07-29T06:20:02;15.50;99.90
34955;DHT22;21639;51.460;-2.536;2022-07-29T06:22:28;15.50;99.90
34955;DHT22;21639;51.460;-2.536;2022-07-29T06:24:54;15.50;99.90
34955;DHT22;21639;51.460;-2.536;2022-07-29T06:27:20;15.60;99.90
34955;DHT22;21639;51.460;-2.536;2022-07-29T06:29:45;15.70;99.90
34955;DHT22;21639;51.460;-2.536;2022-07-29T06:32:11;15.70;99.90
34955;DHT22;21639;51.460;-2.536;2022-07-29T06:34:37;15.80;99.90
34955;DHT22;21639;51.460;-2.536;2022-07-29T06:37:09;15.90;99.90
34955;DHT22;21639;51.460;-2.536;2022-07-29T06:39:38;16.00;99.90
34955;DHT22;21639;51.460;-2.536;2022-07-29T06:42:04;16.00;99.90
34955;DHT22;21639;51.460;-2.536;2022-07-29T06:44:30;16.10;99.90
34955;DHT22;21639;51.460;-2.536;2022-07-29T06:46:56;16.20;99.90
34955;DHT22;21639;51.460;-2.536;2022-07-29T06:49:22;16.30;99.90
34955;DHT22;21639;51.460;-2.536;2022-07-29T06:51:49;16.30;99.90
34955;DHT22;21639;51.460;-2.536;2022-07-29T06:54:15;16.40;99.90
34955;DHT22;21639;51.460;-2.536;2022-07-29T06:56:41;16.60;99.90
34955;DHT22;21639;51.460;-2.536;2022-07-29T06:59:09;16.60;99.90
34955;DHT22;21639;51.460;-2.536;2022-07-29T07:01:36;16.80;99.90
34955;DHT22;21639;51.460;-2.536;2022-07-29T07:04:02;16.90;99.90
34955;DHT22;21639;51.460;-2.536;2022-07-29T07:06:28;16.90;99.90
34955;DHT22;21639;51.460;-2.536;2022-07-29T07:08:54;16.90;99.90
34955;DHT22;21639;51.460;-2.536;2022-07-29T07:11:19;16.80;99.90
34955;DHT22;21639;51.460;-2.536;2022-07-29T07:13:45;16.90;99.90
34955;DHT22;21639;51.460;-2.536;2022-07-29T07:16:10;16.90;99.90
34955;DHT22;21639;51.460;-2.536;2022-07-29T07:18:36;17.00;99.90
34955;DHT22;21639;51.460;-2.536;2022-07-29T07:21:02;17.10;99.90
34955;DHT22;21639;51.460;-2.536;2022-07-29T07:23:27;17.20;99.90
34955;DHT22;21639;51.460;-2.536;2022-07-29T07:25:53;17.30;99.90
34955;DHT22;21639;51.460;-2.536;2022-07-29T07:28:19;17.30;99.90
34955;DHT22;21639;51.460;-2.536;2022-07-29T07:30:45;17.20;99.90
34955;DHT22;21639;51.460;-2.536;2022-07-29T07:33:10;17.30;99.90
34955;DHT22;21639;51.460;-2.536;2022-07-29T07:35:36;17.50;99.90
34955;DHT22;21639;51.460;-2.536;2022-07-29T07:38:02;17.50;99.90
34955;DHT22;21639;51.460;-2.536;2022-07-29T07:40:28;17.50;99.90
34955;DHT22;21639;51.460;-2.536;2022-07-29T07:42:53;17.70;99.90
34955;DHT22;21639;51.460;-2.536;2022-07-29T07:45:19;17.90;99.90
34955;DHT22;21639;51.460;-2.536;2022-07-29T07:47:45;17.90;99.90
34955;DHT22;21639;51.460;-2.536;2022-07-29T07:50:11;18.10;99.90
34955;DHT22;21639;51.460;-2.536;2022-07-29T07:52:53;18.30;99.90
34955;DHT22;21639;51.460;-2.536;2022-07-29T07:55:20;18.40;99.90
34955;DHT22;21639;51.460;-2.536;2022-07-29T07:57:46;18.60;99.90
34955;DHT22;21639;51.460;-2.536;2022-07-29T08:00:13;18.80;99.90
34955;DHT22;21639;51.460;-2.536;2022-07-29T08:02:40;18.90;99.90
34955;DHT22;21639;51.460;-2.536;2022-07-29T08:05:09;18.90;99.90
34955;DHT22;21639;51.460;-2.536;2022-07-29T08:07:35;18.80;99.90
34955;DHT22;21639;51.460;-2.536;2022-07-29T08:10:01;18.80;99.90
34955;DHT22;21639;51.460;-2.536;2022-07-29T08:12:27;18.80;99.00
34955;DHT22;21639;51.460;-2.536;2022-07-29T08:14:52;18.80;99.50
34955;DHT22;21639;51.460;-2.536;2022-07-29T08:17:19;18.90;99.90
34955;DHT22;21639;51.460;-2.536;2022-07-29T08:19:45;19.10;99.90
34955;DHT22;21639;51.460;-2.536;2022-07-29T08:22:11;19.30;94.20
34955;DHT22;21639;51.460;-2.536;2022-07-29T08:24:36;19.60;46.80
34955;DHT22;21639;51.460;-2.536;2022-07-29T08:27:08;19.70;28.40
34955;DHT22;21639;51.460;-2.536;2022-07-29T08:29:35;19.60;32.80
34955;DHT22;21639;51.460;-2.536;2022-07-29T08:32:00;19.60;30.00
34955;DHT22;21639;51.460;-2.536;2022-07-29T08:34:26;19.70;29.10
34955;DHT22;21639;51.460;-2.536;2022-07-29T08:36:52;19.70;36.50
34955;DHT22;21639;51.460;-2.536;2022-07-29T08:39:18;19.80;28.90
34955;DHT22;21639;51.460;-2.536;2022-07-29T08:41:58;19.60;29.40
34955;DHT22;21639;51.460;-2.536;2022-07-29T08:44:24;19.70;32.70
34955;DHT22;21639;51.460;-2.536;2022-07-29T08:46:50;20.20;29.80
34955;DHT22;21639;51.460;-2.536;2022-07-29T08:49:17;20.20;20.00
34955;DHT22;21639;51.460;-2.536;2022-07-29T08:51:43;20.10;26.40
34955;DHT22;21639;51.460;-2.536;2022-07-29T08:54:09;20.30;27.60
34955;DHT22;21639;51.460;-2.536;2022-07-29T08:56:36;20.40;19.60
34955;DHT22;21639;51.460;-2.536;2022-07-29T08:59:04;20.60;24.70
34955;DHT22;21639;51.460;-2.536;2022-07-29T09:01:33;20.80;14.60
34955;DHT22;21639;51.460;-2.536;2022-07-29T09:04:02;20.90;16.30
34955;DHT22;21639;51.460;-2.536;2022-07-29T09:06:31;20.80;16.70
34955;DHT22;21639;51.460;-2.536;2022-07-29T09:09:00;20.70;19.40
34955;DHT22;21639;51.460;-2.536;2022-07-29T09:11:26;20.70;11.60
34955;DHT22;21639;51.460;-2.536;2022-07-29T09:13:52;20.60;22.40
34955;DHT22;21639;51.460;-2.536;2022-07-29T09:16:18;20.90;17.40
34955;DHT22;21639;51.460;-2.536;2022-07-29T09:18:45;21.20;17.00
34955;DHT22;21639;51.460;-2.536;2022-07-29T09:21:13;21.40;7.70
34955;DHT22;21639;51.460;-2.536;2022-07-29T09:24:11;21.40;6.50
34955;DHT22;21639;51.460;-2.536;2022-07-29T09:26:40;21.20;1.00
34955;DHT22;21639;51.460;-2.536;2022-07-29T09:29:20;21.30;1.00
34955;DHT22;21639;51.460;-2.536;2022-07-29T09:31:49;21.40;99.90
34955;DHT22;21639;51.460;-2.536;2022-07-29T09:34:23;21.50;1.00
34955;DHT22;21639;51.460;-2.536;2022-07-29T09:36:50;21.80;99.90
34955;DHT22;21639;51.460;-2.536;2022-07-29T09:41:55;22.00;99.90
34955;DHT22;21639;51.460;-2.536;2022-07-29T09:44:22;22.00;99.90
34955;DHT22;21639;51.460;-2.536;2022-07-29T09:47:02;22.20;99.90
34955;DHT22;21639;51.460;-2.536;2022-07-29T09:49:35;22.40;1.00
34955;DHT22;21639;51.460;-2.536;2022-07-29T09:52:07;22.40;1.00
34955;DHT22;21639;51.460;-2.536;2022-07-29T09:54:34;22.30;1.00
34955;DHT22;21639;51.460;-2.536;2022-07-29T09:57:08;22.60;1.00
34955;DHT22;21639;51.460;-2.536;2022-07-29T09:59:38;22.60;1.00
34955;DHT22;21639;51.460;-2.536;2022-07-29T10:02:13;22.60;1.00
34955;DHT22;21639;51.460;-2.536;2022-07-29T10:04:40;22.50;1.00
34955;DHT22;21639;51.460;-2.536;2022-07-29T10:07:07;22.50;1.00
34955;DHT22;21639;51.460;-2.536;2022-07-29T10:09:33;22.10;1.00
34955;DHT22;21639;51.460;-2.536;2022-07-29T10:14:32;22.10;1.00
34955;DHT22;21639;51.460;-2.536;2022-07-29T10:16:59;22.20;1.00
34955;DHT22;21639;51.460;-2.536;2022-07-29T10:19:31;22.00;1.00
34955;DHT22;21639;51.460;-2.536;2022-07-29T10:21:58;22.00;1.00
34955;DHT22;21639;51.460;-2.536;2022-07-29T10:24:26;22.00;1.00
34955;DHT22;21639;51.460;-2.536;2022-07-29T10:26:54;22.20;1.00
34955;DHT22;21639;51.460;-2.536;2022-07-29T10:29:20;22.50;1.00
34955;DHT22;21639;51.460;-2.536;2022-07-29T10:42:52;22.90;99.90
34955;DHT22;21639;51.460;-2.536;2022-07-29T10:45:18;23.00;99.90
34955;DHT22;21639;51.460;-2.536;2022-07-29T10:47:45;23.00;99.90
34955;DHT22;21639;51.460;-2.536;2022-07-29T10:50:10;23.10;99.90
34955;DHT22;21639;51.460;-2.536;2022-07-29T10:52:56;23.10;99.90
34955;DHT22;21639;51.460;-2.536;2022-07-29T10:55:37;23.20;99.90
34955;DHT22;21639;51.460;-2.536;2022-07-29T11:00:49;23.30;99.90
34955;DHT22;21639;51.460;-2.536;2022-07-29T11:06:09;23.50;99.90
34955;DHT22;21639;51.460;-2.536;2022-07-29T11:08:35;23.70;99.90
34955;DHT22;21639;51.460;-2.536;2022-07-29T11:11:36;23.80;99.90
34955;DHT22;21639;51.460;-2.536;2022-07-29T11:14:02;23.70;99.90
34955;DHT22;21639;51.460;-2.536;2022-07-29T11:16:58;23.90;99.90
34955;DHT22;21639;51.460;-2.536;2022-07-29T11:19:25;23.80;99.90
34955;DHT22;21639;51.460;-2.536;2022-07-29T11:21:50;23.60;99.90
34955;DHT22;21639;51.460;-2.536;2022-07-29T11:27:17;24.00;99.90
34955;DHT22;21639;51.460;-2.536;2022-07-29T11:30:09;23.90;99.90
34955;DHT22;21639;51.460;-2.536;2022-07-29T11:32:39;24.40;99.90
34955;DHT22;21639;51.460;-2.536;2022-07-29T11:35:18;24.70;99.90
34955;DHT22;21639;51.460;-2.536;2022-07-29T11:37:46;25.10;99.90
34955;DHT22;21639;51.460;-2.536;2022-07-29T11:40:13;25.20;99.90
34955;DHT22;21639;51.460;-2.536;2022-07-29T11:42:40;25.10;99.90
34955;DHT22;21639;51.460;-2.536;2022-07-29T11:45:20;25.10;99.90
34955;DHT22;21639;51.460;-2.536;2022-07-29T11:47:52;25.30;99.90
34955;DHT22;21639;51.460;-2.536;2022-07-29T11:50:35;25.30;99.90
34955;DHT22;21639;51.460;-2.536;2022-07-29T11:53:05;25.40;99.90
34955;DHT22;21639;51.460;-2.536;2022-07-29T11:55:37;25.50;99.90
34955;DHT22;21639;51.460;-2.536;2022-07-29T11:58:03;25.50;99.90
34955;DHT22;21639;51.460;-2.536;2022-07-29T12:02:54;25.90;99.90
34955;DHT22;21639;51.460;-2.536;2022-07-29T12:05:21;26.30;99.90
34955;DHT22;21639;51.460;-2.536;2022-07-29T12:07:55;26.30;99.90
34955;DHT22;21639;51.460;-2.536;2022-07-29T12:10:20;26.00;99.90
34955;DHT22;21639;51.460;-2.536;2022-07-29T12:12:51;26.00;99.90
34955;DHT22;21639;51.460;-2.536;2022-07-29T12:15:18;25.60;99.90
34955;DHT22;21639;51.460;-2.536;2022-07-29T12:17:47;25.50;99.90
34955;DHT22;21639;51.460;-2.536;2022-07-29T12:20:13;25.80;99.90
34955;DHT22;21639;51.460;-2.536;2022-07-29T12:22:47;26.10;99.90
34955;DHT22;21639;51.460;-2.536;2022-07-29T12:25:15;26.40;99.90
34955;DHT22;21639;51.460;-2.536;2022-07-29T12:27:42;26.80;99.90
34955;DHT22;21639;51.460;-2.536;2022-07-29T12:30:17;27.10;99.90
34955;DHT22;21639;51.460;-2.536;2022-07-29T12:32:44;27.10;99.90
34955;DHT22;21639;51.460;-2.536;2022-07-29T12:35:13;27.20;99.90
34955;DHT22;21639;51.460;-2.536;2022-07-29T12:37:42;27.30;99.90
34955;DHT22;21639;51.460;-2.536;2022-07-29T12:40:09;27.20;99.90
34955;DHT22;21639;51.460;-2.536;2022-07-29T12:42:35;27.30;99.90
34955;DHT22;21639;51.460;-2.536;2022-07-29T12:47:51;28.00;99.90
34955;DHT22;21639;51.460;-2.536;2022-07-29T12:50:17;28.90;99.90
34955;DHT22;21639;51.460;-2.536;2022-07-29T12:52:45;29.20;99.90
34955;DHT22;21639;51.460;-2.536;2022-07-29T12:55:11;29.80;99.90
34955;DHT22;21639;51.460;-2.536;2022-07-29T12:57:48;29.80;99.90
34955;DHT22;21639;51.460;-2.536;2022-07-29T13:00:16;30.40;99.90
34955;DHT22;21639;51.460;-2.536;2022-07-29T13:02:55;30.90;99.90
34955;DHT22;21639;51.460;-2.536;2022-07-29T13:05:20;31.10;99.90
34955;DHT22;21639;51.460;-2.536;2022-07-29T13:07:47;31.50;99.90
34955;DHT22;21639;51.460;-2.536;2022-07-29T13:10:15;31.80;99.90
34955;DHT22;21639;51.460;-2.536;2022-07-29T13:13:03;31.80;99.90
34955;DHT22;21639;51.460;-2.536;2022-07-29T13:15:29;31.10;99.90
34955;DHT22;21639;51.460;-2.536;2022-07-29T13:17:55;30.40;99.90
34955;DHT22;21639;51.460;-2.536;2022-07-29T13:20:24;29.70;99.90
34955;DHT22;21639;51.460;-2.536;2022-07-29T13:22:50;30.40;99.90
34955;DHT22;21639;51.460;-2.536;2022-07-29T13:25:27;30.90;99.90
34955;DHT22;21639;51.460;-2.536;2022-07-29T13:27:54;31.20;99.90
34955;DHT22;21639;51.460;-2.536;2022-07-29T13:30:22;31.60;99.90
34955;DHT22;21639;51.460;-2.536;2022-07-29T13:32:47;32.00;99.90
34955;DHT22;21639;51.460;-2.536;2022-07-29T13:35:14;32.60;99.90
34955;DHT22;21639;51.460;-2.536;2022-07-29T13:37:40;33.00;99.90
34955;DHT22;21639;51.460;-2.536;2022-07-29T13:40:10;33.50;99.90
34955;DHT22;21639;51.460;-2.536;2022-07-29T13:42:36;34.60;99.90
34955;DHT22;21639;51.460;-2.536;2022-07-29T13:45:03;35.30;99.90
34955;DHT22;21639;51.460;-2.536;2022-07-29T13:47:29;35.60;99.90
34955;DHT22;21639;51.460;-2.536;2022-07-29T13:49:55;34.90;99.90
34955;DHT22;21639;51.460;-2.536;2022-07-29T13:52:21;33.60;99.90
34955;DHT22;21639;51.460;-2.536;2022-07-29T13:54:47;32.70;99.90
34955;DHT22;21639;51.460;-2.536;2022-07-29T13:57:13;32.60;99.90
34955;DHT22;21639;51.460;-2.536;2022-07-29T13:59:40;33.60;99.90
34955;DHT22;21639;51.460;-2.536;2022-07-29T14:02:07;34.20;99.90
34955;DHT22;21639;51.460;-2.536;2022-07-29T14:04:33;34.30;99.90
34955;DHT22;21639;51.460;-2.536;2022-07-29T14:06:59;34.80;99.90
34955;DHT22;21639;51.460;-2.536;2022-07-29T14:09:24;35.30;99.90
34955;DHT22;21639;51.460;-2.536;2022-07-29T14:11:50;34.20;99.90
34955;DHT22;21639;51.460;-2.536;2022-07-29T14:14:18;33.80;99.90
34955;DHT22;21639;51.460;-2.536;2022-07-29T14:16:44;34.40;99.90
34955;DHT22;21639;51.460;-2.536;2022-07-29T14:19:10;33.80;99.90
34955;DHT22;21639;51.460;-2.536;2022-07-29T14:21:37;32.90;99.90
34955;DHT22;21639;51.460;-2.536;2022-07-29T14:24:03;31.90;99.90
34955;DHT22;21639;51.460;-2.536;2022-07-29T14:26:29;32.70;99.90
34955;DHT22;21639;51.460;-2.536;2022-07-29T14:28:55;33.50;99.90
34955;DHT22;21639;51.460;-2.536;2022-07-29T14:31:20;32.90;99.90
34955;DHT22;21639;51.460;-2.536;2022-07-29T14:33:46;33.10;99.90
34955;DHT22;21639;51.460;-2.536;2022-07-29T14:36:12;33.10;99.90
34955;DHT22;21639;51.460;-2.536;2022-07-29T14:38:38;33.00;99.90
34955;DHT22;21639;51.460;-2.536;2022-07-29T14:41:04;32.00;99.90
34955;DHT22;21639;51.460;-2.536;2022-07-29T14:43:30;30.30;99.90
34955;DHT22;21639;51.460;-2.536;2022-07-29T14:45:56;29.80;99.90
34955;DHT22;21639;51.460;-2.536;2022-07-29T14:48:21;29.10;99.90
34955;DHT22;21639;51.460;-2.536;2022-07-29T14:50:47;28.80;99.90
34955;DHT22;21639;51.460;-2.536;2022-07-29T14:53:13;28.10;99.90
34955;DHT22;21639;51.460;-2.536;2022-07-29T14:55:39;27.90;99.90
34955;DHT22;21639;51.460;-2.536;2022-07-29T14:58:06;28.00;99.90
34955;DHT22;21639;51.460;-2.536;2022-07-29T15:00:31;28.30;99.90
34955;DHT22;21639;51.460;-2.536;2022-07-29T15:02:59;28.80;99.90
34955;DHT22;21639;51.460;-2.536;2022-07-29T15:05:25;30.40;99.90
34955;DHT22;21639;51.460;-2.536;2022-07-29T15:07:51;31.20;99.90
34955;DHT22;21639;51.460;-2.536;2022-07-29T15:10:17;31.30;99.90
34955;DHT22;21639;51.460;-2.536;2022-07-29T15:12:42;31.10;99.90
34955;DHT22;21639;51.460;-2.536;2022-07-29T15:15:09;30.60;99.90
34955;DHT22;21639;51.460;-2.536;2022-07-29T15:17:35;31.40;99.90
34955;DHT22;21639;51.460;-2.536;2022-07-29T15:20:00;31.60;99.90
34955;DHT22;21639;51.460;-2.536;2022-07-29T15:22:26;32.50;99.90
34955;DHT22;21639;51.460;-2.536;2022-07-29T15:24:52;32.30;99.90
34955;DHT22;21639;51.460;-2.536;2022-07-29T15:27:18;31.60;99.90
34955;DHT22;21639;51.460;-2.536;2022-07-29T15:29:44;30.90;99.90
34955;DHT22;21639;51.460;-2.536;2022-07-29T15:32:10;30.90;99.90
34955;DHT22;21639;51.460;-2.536;2022-07-29T15:34:37;31.50;99.90
34955;DHT22;21639;51.460;-2.536;2022-07-29T15:37:04;31.80;99.90
34955;DHT22;21639;51.460;-2.536;2022-07-29T15:39:30;31.60;99.90
34955;DHT22;21639;51.460;-2.536;2022-07-29T15:41:55;31.00;99.90
34955;DHT22;21639;51.460;-2.536;2022-07-29T15:44:21;30.60;99.90
34955;DHT22;21639;51.460;-2.536;2022-07-29T15:46:49;30.20;99.90
34955;DHT22;21639;51.460;-2.536;2022-07-29T15:49:38;30.10;99.90
34955;DHT22;21639;51.460;-2.536;2022-07-29T15:52:06;30.40;99.90
34955;DHT22;21639;51.460;-2.536;2022-07-29T15:54:34;31.30;99.90
34955;DHT22;21639;51.460;-2.536;2022-07-29T15:57:00;31.10;99.90
34955;DHT22;21639;51.460;-2.536;2022-07-29T15:59:25;30.80;99.90
34955;DHT22;21639;51.460;-2.536;2022-07-29T16:01:51;30.60;99.90
34955;DHT22;21639;51.460;-2.536;2022-07-29T16:04:17;30.20;99.90
34955;DHT22;21639;51.460;-2.536;2022-07-29T16:06:43;29.80;99.90